sensor_id;sensor_type;location;lat;lon;timestamp;P1;durP1;ratioP1;P2;durP2;ratioP2
68365;SDS011;55283;51.466;5.478;2022-12-07T00:01:15;6.77;;;3.00;;
68365;SDS011;55283;51.466;5.478;2022-12-07T00:09:42;6.50;;;3.37;;
68365;SDS011;55283;51.466;5.478;2022-12-07T00:12:07;6.00;;;3.00;;
68365;SDS011;55283;51.466;5.478;2022-12-07T00:14:33;6.57;;;3.10;;
68365;SDS011;55283;51.466;5.478;2022-12-07T00:16:58;5.77;;;3.10;;
68365;SDS011;55283;51.466;5.478;2022-12-07T00:19:23;5.77;;;3.00;;
68365;SDS011;55283;51.466;5.478;2022-12-07T00:21:49;7.30;;;3.42;;
68365;SDS011;55283;51.466;5.478;2022-12-07T00:24:14;6.00;;;3.33;;
68365;SDS011;55283;51.466;5.478;2022-12-07T00:26:40;4.83;;;2.90;;
68365;SDS011;55283;51.466;5.478;2022-12-07T00:29:08;7.05;;;3.50;;
68365;SDS011;55283;51.466;5.478;2022-12-07T00:31:39;6.60;;;3.17;;
68365;SDS011;55283;51.466;5.478;2022-12-07T00:34:05;6.20;;;3.10;;
68365;SDS011;55283;51.466;5.478;2022-12-07T00:36:32;7.07;;;3.40;;
68365;SDS011;55283;51.466;5.478;2022-12-07T00:38:58;5.55;;;2.90;;
68365;SDS011;55283;51.466;5.478;2022-12-07T00:41:25;5.32;;;3.15;;
68365;SDS011;55283;51.466;5.478;2022-12-07T00:43:51;5.87;;;2.77;;
68365;SDS011;55283;51.466;5.478;2022-12-07T00:46:17;5.30;;;2.90;;
68365;SDS011;55283;51.466;5.478;2022-12-07T00:48:44;5.50;;;2.88;;
68365;SDS011;55283;51.466;5.478;2022-12-07T00:51:10;5.83;;;3.00;;
68365;SDS011;55283;51.466;5.478;2022-12-07T00:53:37;6.20;;;2.90;;
68365;SDS011;55283;51.466;5.478;2022-12-07T00:56:11;5.85;;;2.90;;
68365;SDS011;55283;51.466;5.478;2022-12-07T00:58:38;5.33;;;2.80;;
68365;SDS011;55283;51.466;5.478;2022-12-07T01:01:05;4.93;;;2.70;;
68365;SDS011;55283;51.466;5.478;2022-12-07T01:03:32;5.93;;;2.77;;
68365;SDS011;55283;51.466;5.478;2022-12-07T01:05:57;6.75;;;3.10;;
68365;SDS011;55283;51.466;5.478;2022-12-07T01:08:24;5.55;;;2.70;;
68365;SDS011;55283;51.466;5.478;2022-12-07T01:10:58;5.37;;;2.77;;
68365;SDS011;55283;51.466;5.478;2022-12-07T01:13:28;5.80;;;2.88;;
68365;SDS011;55283;51.466;5.478;2022-12-07T01:15:56;4.22;;;2.63;;
68365;SDS011;55283;51.466;5.478;2022-12-07T01:18:25;5.60;;;2.67;;
68365;SDS011;55283;51.466;5.478;2022-12-07T01:39:56;4.63;;;2.60;;
68365;SDS011;55283;51.466;5.478;2022-12-07T01:42:21;4.40;;;2.60;;
68365;SDS011;55283;51.466;5.478;2022-12-07T01:47:45;6.85;;;2.72;;
68365;SDS011;55283;51.466;5.478;2022-12-07T01:50:13;4.63;;;2.47;;
68365;SDS011;55283;51.466;5.478;2022-12-07T01:52:39;6.10;;;3.03;;
68365;SDS011;55283;51.466;5.478;2022-12-07T01:55:07;4.50;;;2.50;;
68365;SDS011;55283;51.466;5.478;2022-12-07T01:57:36;3.88;;;2.50;;
68365;SDS011;55283;51.466;5.478;2022-12-07T02:03:34;4.55;;;2.30;;
68365;SDS011;55283;51.466;5.478;2022-12-07T02:06:02;4.53;;;2.60;;
68365;SDS011;55283;51.466;5.478;2022-12-07T02:08:30;3.97;;;2.40;;
68365;SDS011;55283;51.466;5.478;2022-12-07T02:10:57;5.07;;;2.42;;
68365;SDS011;55283;51.466;5.478;2022-12-07T02:13:23;4.70;;;2.40;;
68365;SDS011;55283;51.466;5.478;2022-12-07T02:29:39;4.68;;;2.60;;
68365;SDS011;55283;51.466;5.478;2022-12-07T02:32:16;4.07;;;2.47;;
68365;SDS011;55283;51.466;5.478;2022-12-07T02:34:48;5.65;;;2.30;;
68365;SDS011;55283;51.466;5.478;2022-12-07T02:37:39;4.13;;;2.10;;
68365;SDS011;55283;51.466;5.478;2022-12-07T02:40:29;3.33;;;2.10;;
68365;SDS011;55283;51.466;5.478;2022-12-07T02:43:02;5.25;;;2.80;;
68365;SDS011;55283;51.466;5.478;2022-12-07T02:45:33;4.20;;;2.28;;
68365;SDS011;55283;51.466;5.478;2022-12-07T02:48:01;4.30;;;2.30;;
68365;SDS011;55283;51.466;5.478;2022-12-07T02:50:28;4.10;;;2.28;;
68365;SDS011;55283;51.466;5.478;2022-12-07T02:52:54;5.37;;;2.30;;
68365;SDS011;55283;51.466;5.478;2022-12-07T02:55:26;4.30;;;2.23;;
68365;SDS011;55283;51.466;5.478;2022-12-07T03:00:27;4.35;;;2.40;;
68365;SDS011;55283;51.466;5.478;2022-12-07T03:08:19;4.00;;;2.40;;
68365;SDS011;55283;51.466;5.478;2022-12-07T03:11:05;3.88;;;2.20;;
68365;SDS011;55283;51.466;5.478;2022-12-07T03:16:33;5.25;;;2.38;;
68365;SDS011;55283;51.466;5.478;2022-12-07T03:19:11;4.20;;;2.00;;
68365;SDS011;55283;51.466;5.478;2022-12-07T03:21:40;3.97;;;2.20;;
68365;SDS011;55283;51.466;5.478;2022-12-07T03:24:11;4.85;;;2.28;;
68365;SDS011;55283;51.466;5.478;2022-12-07T03:26:44;3.70;;;2.10;;
68365;SDS011;55283;51.466;5.478;2022-12-07T03:29:20;3.80;;;2.00;;
68365;SDS011;55283;51.466;5.478;2022-12-07T03:31:56;4.88;;;2.22;;
68365;SDS011;55283;51.466;5.478;2022-12-07T03:34:40;5.60;;;2.40;;
68365;SDS011;55283;51.466;5.478;2022-12-07T03:37:18;3.65;;;2.00;;
68365;SDS011;55283;51.466;5.478;2022-12-07T03:42:31;3.28;;;1.98;;
68365;SDS011;55283;51.466;5.478;2022-12-07T03:44:58;3.53;;;2.07;;
68365;SDS011;55283;51.466;5.478;2022-12-07T03:53:14;3.63;;;1.90;;
68365;SDS011;55283;51.466;5.478;2022-12-07T03:55:41;3.67;;;1.92;;
68365;SDS011;55283;51.466;5.478;2022-12-07T03:58:10;4.70;;;2.10;;
68365;SDS011;55283;51.466;5.478;2022-12-07T04:00:40;2.60;;;1.70;;
68365;SDS011;55283;51.466;5.478;2022-12-07T04:03:06;3.45;;;1.90;;
68365;SDS011;55283;51.466;5.478;2022-12-07T04:05:32;3.57;;;2.10;;
68365;SDS011;55283;51.466;5.478;2022-12-07T04:07:57;2.88;;;1.98;;
68365;SDS011;55283;51.466;5.478;2022-12-07T04:10:23;3.47;;;1.93;;
68365;SDS011;55283;51.466;5.478;2022-12-07T04:12:48;4.40;;;2.00;;
68365;SDS011;55283;51.466;5.478;2022-12-07T04:15:14;4.17;;;2.20;;
68365;SDS011;55283;51.466;5.478;2022-12-07T04:17:39;3.03;;;1.80;;
68365;SDS011;55283;51.466;5.478;2022-12-07T04:20:06;2.30;;;1.60;;
68365;SDS011;55283;51.466;5.478;2022-12-07T04:22:32;3.47;;;1.90;;
68365;SDS011;55283;51.466;5.478;2022-12-07T04:24:57;2.43;;;1.70;;
68365;SDS011;55283;51.466;5.478;2022-12-07T04:27:23;3.30;;;1.83;;
68365;SDS011;55283;51.466;5.478;2022-12-07T04:29:48;3.37;;;1.80;;
68365;SDS011;55283;51.466;5.478;2022-12-07T04:32:14;3.10;;;2.10;;
68365;SDS011;55283;51.466;5.478;2022-12-07T04:34:39;3.30;;;1.93;;
68365;SDS011;55283;51.466;5.478;2022-12-07T04:37:05;3.20;;;2.10;;
68365;SDS011;55283;51.466;5.478;2022-12-07T04:39:31;3.70;;;2.13;;
68365;SDS011;55283;51.466;5.478;2022-12-07T04:41:57;2.55;;;1.70;;
68365;SDS011;55283;51.466;5.478;2022-12-07T04:44:24;3.53;;;1.85;;
68365;SDS011;55283;51.466;5.478;2022-12-07T04:46:51;2.77;;;1.70;;
68365;SDS011;55283;51.466;5.478;2022-12-07T04:49:17;3.50;;;1.80;;
68365;SDS011;55283;51.466;5.478;2022-12-07T04:51:43;3.80;;;2.00;;
68365;SDS011;55283;51.466;5.478;2022-12-07T04:54:09;3.45;;;2.08;;
68365;SDS011;55283;51.466;5.478;2022-12-07T04:56:34;4.53;;;2.10;;
68365;SDS011;55283;51.466;5.478;2022-12-07T04:59:01;2.78;;;1.92;;
68365;SDS011;55283;51.466;5.478;2022-12-07T05:01:27;3.28;;;1.83;;
68365;SDS011;55283;51.466;5.478;2022-12-07T05:03:52;3.43;;;1.80;;
68365;SDS011;55283;51.466;5.478;2022-12-07T05:06:18;3.47;;;1.97;;
68365;SDS011;55283;51.466;5.478;2022-12-07T05:08:44;4.28;;;1.90;;
68365;SDS011;55283;51.466;5.478;2022-12-07T05:11:10;3.60;;;2.15;;
68365;SDS011;55283;51.466;5.478;2022-12-07T05:13:59;2.33;;;1.63;;
68365;SDS011;55283;51.466;5.478;2022-12-07T05:16:25;2.28;;;1.58;;
68365;SDS011;55283;51.466;5.478;2022-12-07T05:18:51;3.10;;;1.80;;
68365;SDS011;55283;51.466;5.478;2022-12-07T05:21:16;3.40;;;1.97;;
68365;SDS011;55283;51.466;5.478;2022-12-07T05:23:42;3.08;;;1.77;;
68365;SDS011;55283;51.466;5.478;2022-12-07T05:26:07;3.37;;;2.00;;
68365;SDS011;55283;51.466;5.478;2022-12-07T05:28:33;2.90;;;1.80;;
68365;SDS011;55283;51.466;5.478;2022-12-07T05:30:58;3.83;;;1.57;;
68365;SDS011;55283;51.466;5.478;2022-12-07T05:33:23;3.25;;;1.83;;
68365;SDS011;55283;51.466;5.478;2022-12-07T05:35:49;3.83;;;1.90;;
68365;SDS011;55283;51.466;5.478;2022-12-07T05:38:14;2.97;;;1.80;;
68365;SDS011;55283;51.466;5.478;2022-12-07T05:40:40;2.80;;;1.63;;
68365;SDS011;55283;51.466;5.478;2022-12-07T05:43:05;2.30;;;1.53;;
68365;SDS011;55283;51.466;5.478;2022-12-07T05:45:30;3.40;;;1.87;;
68365;SDS011;55283;51.466;5.478;2022-12-07T05:47:56;2.92;;;1.85;;
68365;SDS011;55283;51.466;5.478;2022-12-07T05:50:21;3.40;;;1.80;;
68365;SDS011;55283;51.466;5.478;2022-12-07T05:52:47;3.40;;;1.90;;
68365;SDS011;55283;51.466;5.478;2022-12-07T05:55:12;2.77;;;1.50;;
68365;SDS011;55283;51.466;5.478;2022-12-07T05:57:38;3.15;;;1.85;;
68365;SDS011;55283;51.466;5.478;2022-12-07T06:00:04;3.07;;;1.60;;
68365;SDS011;55283;51.466;5.478;2022-12-07T06:02:30;3.75;;;1.80;;
68365;SDS011;55283;51.466;5.478;2022-12-07T06:04:56;3.97;;;1.70;;
68365;SDS011;55283;51.466;5.478;2022-12-07T06:07:21;2.87;;;1.63;;
68365;SDS011;55283;51.466;5.478;2022-12-07T06:09:46;2.20;;;1.50;;
68365;SDS011;55283;51.466;5.478;2022-12-07T06:12:12;2.78;;;1.70;;
68365;SDS011;55283;51.466;5.478;2022-12-07T06:14:56;2.80;;;1.57;;
68365;SDS011;55283;51.466;5.478;2022-12-07T06:17:22;3.13;;;1.80;;
68365;SDS011;55283;51.466;5.478;2022-12-07T06:19:48;2.77;;;1.60;;
68365;SDS011;55283;51.466;5.478;2022-12-07T06:22:13;2.45;;;1.60;;
68365;SDS011;55283;51.466;5.478;2022-12-07T06:24:39;2.43;;;1.77;;
68365;SDS011;55283;51.466;5.478;2022-12-07T06:27:05;2.38;;;1.65;;
68365;SDS011;55283;51.466;5.478;2022-12-07T06:29:30;2.50;;;1.70;;
68365;SDS011;55283;51.466;5.478;2022-12-07T06:31:56;3.40;;;1.70;;
68365;SDS011;55283;51.466;5.478;2022-12-07T06:34:22;4.03;;;1.50;;
68365;SDS011;55283;51.466;5.478;2022-12-07T06:36:49;2.75;;;1.67;;
68365;SDS011;55283;51.466;5.478;2022-12-07T06:39:23;3.70;;;1.60;;
68365;SDS011;55283;51.466;5.478;2022-12-07T06:41:51;2.27;;;1.30;;
68365;SDS011;55283;51.466;5.478;2022-12-07T06:44:17;3.22;;;1.60;;
68365;SDS011;55283;51.466;5.478;2022-12-07T06:46:44;2.65;;;1.50;;
68365;SDS011;55283;51.466;5.478;2022-12-07T06:49:09;4.00;;;1.60;;
68365;SDS011;55283;51.466;5.478;2022-12-07T06:51:35;2.00;;;1.40;;
68365;SDS011;55283;51.466;5.478;2022-12-07T06:54:02;1.88;;;1.23;;
68365;SDS011;55283;51.466;5.478;2022-12-07T06:56:28;2.00;;;1.40;;
68365;SDS011;55283;51.466;5.478;2022-12-07T06:58:54;4.47;;;1.52;;
68365;SDS011;55283;51.466;5.478;2022-12-07T07:01:19;2.57;;;1.40;;
68365;SDS011;55283;51.466;5.478;2022-12-07T07:03:45;2.23;;;1.40;;
68365;SDS011;55283;51.466;5.478;2022-12-07T07:06:11;3.63;;;1.50;;
68365;SDS011;55283;51.466;5.478;2022-12-07T07:08:38;3.95;;;1.67;;
68365;SDS011;55283;51.466;5.478;2022-12-07T07:11:04;4.43;;;1.70;;
68365;SDS011;55283;51.466;5.478;2022-12-07T07:13:31;7.05;;;1.67;;
68365;SDS011;55283;51.466;5.478;2022-12-07T07:15:57;5.78;;;1.58;;
68365;SDS011;55283;51.466;5.478;2022-12-07T07:18:22;3.23;;;1.50;;
68365;SDS011;55283;51.466;5.478;2022-12-07T07:20:49;3.63;;;1.50;;
68365;SDS011;55283;51.466;5.478;2022-12-07T07:23:15;4.73;;;1.57;;
68365;SDS011;55283;51.466;5.478;2022-12-07T07:25:41;2.75;;;1.70;;
68365;SDS011;55283;51.466;5.478;2022-12-07T07:28:06;4.03;;;1.40;;
68365;SDS011;55283;51.466;5.478;2022-12-07T07:30:32;3.30;;;1.50;;
68365;SDS011;55283;51.466;5.478;2022-12-07T07:32:58;3.33;;;1.58;;
68365;SDS011;55283;51.466;5.478;2022-12-07T07:35:25;3.63;;;1.40;;
68365;SDS011;55283;51.466;5.478;2022-12-07T07:37:51;3.73;;;1.37;;
68365;SDS011;55283;51.466;5.478;2022-12-07T07:40:16;4.60;;;1.42;;
68365;SDS011;55283;51.466;5.478;2022-12-07T07:42:42;2.77;;;1.33;;
68365;SDS011;55283;51.466;5.478;2022-12-07T07:45:07;5.50;;;1.33;;
68365;SDS011;55283;51.466;5.478;2022-12-07T07:47:33;2.50;;;1.40;;
68365;SDS011;55283;51.466;5.478;2022-12-07T07:49:59;2.53;;;1.40;;
68365;SDS011;55283;51.466;5.478;2022-12-07T07:52:25;4.47;;;1.50;;
68365;SDS011;55283;51.466;5.478;2022-12-07T07:54:50;3.43;;;1.37;;
68365;SDS011;55283;51.466;5.478;2022-12-07T07:57:16;5.03;;;1.40;;
68365;SDS011;55283;51.466;5.478;2022-12-07T07:59:42;3.80;;;1.58;;
68365;SDS011;55283;51.466;5.478;2022-12-07T08:02:09;2.97;;;1.40;;
68365;SDS011;55283;51.466;5.478;2022-12-07T08:04:39;2.95;;;1.40;;
68365;SDS011;55283;51.466;5.478;2022-12-07T08:07:04;3.30;;;1.20;;
68365;SDS011;55283;51.466;5.478;2022-12-07T08:09:30;5.63;;;1.43;;
68365;SDS011;55283;51.466;5.478;2022-12-07T08:11:55;3.43;;;1.50;;
68365;SDS011;55283;51.466;5.478;2022-12-07T08:14:21;4.13;;;1.40;;
68365;SDS011;55283;51.466;5.478;2022-12-07T08:16:46;4.37;;;1.43;;
68365;SDS011;55283;51.466;5.478;2022-12-07T08:19:11;2.57;;;1.40;;
68365;SDS011;55283;51.466;5.478;2022-12-07T08:21:37;4.70;;;1.40;;
68365;SDS011;55283;51.466;5.478;2022-12-07T08:24:02;4.88;;;1.48;;
68365;SDS011;55283;51.466;5.478;2022-12-07T08:26:28;2.80;;;1.30;;
68365;SDS011;55283;51.466;5.478;2022-12-07T08:28:53;3.67;;;1.30;;
68365;SDS011;55283;51.466;5.478;2022-12-07T08:31:19;3.40;;;1.40;;
68365;SDS011;55283;51.466;5.478;2022-12-07T08:33:45;2.30;;;1.27;;
68365;SDS011;55283;51.466;5.478;2022-12-07T08:36:12;2.53;;;1.52;;
68365;SDS011;55283;51.466;5.478;2022-12-07T08:38:38;3.37;;;1.40;;
68365;SDS011;55283;51.466;5.478;2022-12-07T08:41:05;4.13;;;1.30;;
68365;SDS011;55283;51.466;5.478;2022-12-07T08:43:32;2.92;;;1.63;;
68365;SDS011;55283;51.466;5.478;2022-12-07T08:48:50;3.78;;;1.50;;
68365;SDS011;55283;51.466;5.478;2022-12-07T08:51:20;2.37;;;1.20;;
68365;SDS011;55283;51.466;5.478;2022-12-07T08:53:46;2.85;;;1.20;;
68365;SDS011;55283;51.466;5.478;2022-12-07T08:56:12;2.53;;;1.27;;
68365;SDS011;55283;51.466;5.478;2022-12-07T08:58:38;3.03;;;1.20;;
68365;SDS011;55283;51.466;5.478;2022-12-07T09:01:04;2.35;;;1.33;;
68365;SDS011;55283;51.466;5.478;2022-12-07T09:03:30;1.83;;;1.05;;
68365;SDS011;55283;51.466;5.478;2022-12-07T09:05:56;2.77;;;1.33;;
68365;SDS011;55283;51.466;5.478;2022-12-07T09:08:22;2.17;;;1.30;;
68365;SDS011;55283;51.466;5.478;2022-12-07T09:10:54;3.90;;;1.00;;
68365;SDS011;55283;51.466;5.478;2022-12-07T09:13:20;2.27;;;1.17;;
68365;SDS011;55283;51.466;5.478;2022-12-07T09:15:45;3.47;;;1.43;;
68365;SDS011;55283;51.466;5.478;2022-12-07T09:18:11;3.13;;;1.40;;
68365;SDS011;55283;51.466;5.478;2022-12-07T09:20:36;2.50;;;1.30;;
68365;SDS011;55283;51.466;5.478;2022-12-07T09:23:02;4.23;;;1.40;;
68365;SDS011;55283;51.466;5.478;2022-12-07T09:25:27;3.87;;;1.07;;
68365;SDS011;55283;51.466;5.478;2022-12-07T09:27:56;3.30;;;1.15;;
68365;SDS011;55283;51.466;5.478;2022-12-07T09:30:22;2.47;;;1.10;;
68365;SDS011;55283;51.466;5.478;2022-12-07T09:32:48;1.90;;;1.15;;
68365;SDS011;55283;51.466;5.478;2022-12-07T09:35:13;3.50;;;1.20;;
68365;SDS011;55283;51.466;5.478;2022-12-07T09:37:38;2.33;;;1.13;;
68365;SDS011;55283;51.466;5.478;2022-12-07T09:40:04;3.03;;;1.27;;
68365;SDS011;55283;51.466;5.478;2022-12-07T09:42:37;2.00;;;1.10;;
68365;SDS011;55283;51.466;5.478;2022-12-07T09:45:11;2.17;;;1.10;;
68365;SDS011;55283;51.466;5.478;2022-12-07T09:47:58;2.80;;;1.20;;
68365;SDS011;55283;51.466;5.478;2022-12-07T09:50:25;2.25;;;1.30;;
68365;SDS011;55283;51.466;5.478;2022-12-07T09:52:53;1.98;;;1.10;;
68365;SDS011;55283;51.466;5.478;2022-12-07T09:55:22;2.87;;;1.17;;
68365;SDS011;55283;51.466;5.478;2022-12-07T09:57:52;2.38;;;1.20;;
68365;SDS011;55283;51.466;5.478;2022-12-07T10:00:19;2.63;;;1.27;;
68365;SDS011;55283;51.466;5.478;2022-12-07T10:03:07;2.50;;;1.05;;
68365;SDS011;55283;51.466;5.478;2022-12-07T10:05:40;3.37;;;1.40;;
68365;SDS011;55283;51.466;5.478;2022-12-07T10:08:12;2.42;;;1.33;;
68365;SDS011;55283;51.466;5.478;2022-12-07T10:10:39;3.08;;;1.40;;
68365;SDS011;55283;51.466;5.478;2022-12-07T10:15:44;1.50;;;1.00;;
68365;SDS011;55283;51.466;5.478;2022-12-07T10:18:20;1.52;;;1.05;;
68365;SDS011;55283;51.466;5.478;2022-12-07T10:21:05;3.33;;;1.20;;
68365;SDS011;55283;51.466;5.478;2022-12-07T10:23:34;1.70;;;1.00;;
68365;SDS011;55283;51.466;5.478;2022-12-07T10:26:21;2.08;;;1.23;;
68365;SDS011;55283;51.466;5.478;2022-12-07T10:28:58;2.00;;;1.20;;
68365;SDS011;55283;51.466;5.478;2022-12-07T10:31:26;2.37;;;1.30;;
68365;SDS011;55283;51.466;5.478;2022-12-07T10:33:56;2.90;;;1.10;;
68365;SDS011;55283;51.466;5.478;2022-12-07T10:39:00;2.80;;;1.17;;
68365;SDS011;55283;51.466;5.478;2022-12-07T10:44:24;3.30;;;1.30;;
68365;SDS011;55283;51.466;5.478;2022-12-07T11:06:26;3.05;;;1.20;;
68365;SDS011;55283;51.466;5.478;2022-12-07T11:34:34;3.75;;;1.10;;
68365;SDS011;55283;51.466;5.478;2022-12-07T11:37:15;4.78;;;1.02;;
68365;SDS011;55283;51.466;5.478;2022-12-07T11:39:50;3.60;;;1.20;;
68365;SDS011;55283;51.466;5.478;2022-12-07T11:42:21;4.25;;;1.30;;
68365;SDS011;55283;51.466;5.478;2022-12-07T11:50:13;1.97;;;1.03;;
68365;SDS011;55283;51.466;5.478;2022-12-07T11:52:44;2.47;;;1.35;;
68365;SDS011;55283;51.466;5.478;2022-12-07T11:55:30;1.83;;;1.20;;
68365;SDS011;55283;51.466;5.478;2022-12-07T11:58:04;2.83;;;1.20;;
68365;SDS011;55283;51.466;5.478;2022-12-07T12:00:39;2.65;;;1.20;;
68365;SDS011;55283;51.466;5.478;2022-12-07T12:03:11;1.67;;;1.08;;
68365;SDS011;55283;51.466;5.478;2022-12-07T12:05:45;4.67;;;1.30;;
68365;SDS011;55283;51.466;5.478;2022-12-07T12:08:15;1.75;;;1.00;;
68365;SDS011;55283;51.466;5.478;2022-12-07T12:13:48;2.33;;;1.05;;
68365;SDS011;55283;51.466;5.478;2022-12-07T12:21:53;2.40;;;1.10;;
68365;SDS011;55283;51.466;5.478;2022-12-07T12:24:28;1.63;;;1.00;;
68365;SDS011;55283;51.466;5.478;2022-12-07T12:29:59;1.93;;;1.00;;
68365;SDS011;55283;51.466;5.478;2022-12-07T12:32:40;1.55;;;1.00;;
68365;SDS011;55283;51.466;5.478;2022-12-07T12:40:58;2.55;;;1.10;;
68365;SDS011;55283;51.466;5.478;2022-12-07T12:48:55;1.70;;;1.10;;
68365;SDS011;55283;51.466;5.478;2022-12-07T12:51:40;1.65;;;1.00;;
68365;SDS011;55283;51.466;5.478;2022-12-07T12:56:52;1.20;;;0.83;;
68365;SDS011;55283;51.466;5.478;2022-12-07T12:59:30;2.45;;;1.05;;
68365;SDS011;55283;51.466;5.478;2022-12-07T13:18:03;4.15;;;1.20;;
68365;SDS011;55283;51.466;5.478;2022-12-07T13:20:47;3.08;;;1.13;;
68365;SDS011;55283;51.466;5.478;2022-12-07T13:28:52;1.98;;;1.10;;
68365;SDS011;55283;51.466;5.478;2022-12-07T13:31:36;2.30;;;1.13;;
68365;SDS011;55283;51.466;5.478;2022-12-07T13:34:26;1.52;;;1.10;;
68365;SDS011;55283;51.466;5.478;2022-12-07T13:36:52;1.98;;;1.20;;
68365;SDS011;55283;51.466;5.478;2022-12-07T13:39:18;4.40;;;1.10;;
68365;SDS011;55283;51.466;5.478;2022-12-07T13:41:54;2.65;;;1.23;;
68365;SDS011;55283;51.466;5.478;2022-12-07T13:44:22;1.83;;;1.00;;
68365;SDS011;55283;51.466;5.478;2022-12-07T13:49:15;4.77;;;1.07;;
68365;SDS011;55283;51.466;5.478;2022-12-07T13:51:49;2.45;;;1.20;;
68365;SDS011;55283;51.466;5.478;2022-12-07T13:54:15;2.97;;;0.93;;
68365;SDS011;55283;51.466;5.478;2022-12-07T13:56:41;2.37;;;1.20;;
68365;SDS011;55283;51.466;5.478;2022-12-07T13:59:25;2.35;;;1.00;;
68365;SDS011;55283;51.466;5.478;2022-12-07T14:01:52;1.65;;;1.10;;
68365;SDS011;55283;51.466;5.478;2022-12-07T14:04:19;1.95;;;0.90;;
68365;SDS011;55283;51.466;5.478;2022-12-07T14:07:00;1.53;;;1.07;;
68365;SDS011;55283;51.466;5.478;2022-12-07T14:09:52;2.53;;;1.00;;
68365;SDS011;55283;51.466;5.478;2022-12-07T14:12:22;1.52;;;1.00;;
68365;SDS011;55283;51.466;5.478;2022-12-07T14:14:49;2.23;;;1.00;;
68365;SDS011;55283;51.466;5.478;2022-12-07T14:17:15;3.08;;;1.15;;
68365;SDS011;55283;51.466;5.478;2022-12-07T14:22:20;1.60;;;0.97;;
68365;SDS011;55283;51.466;5.478;2022-12-07T14:24:49;1.85;;;1.00;;
68365;SDS011;55283;51.466;5.478;2022-12-07T14:27:18;1.88;;;1.05;;
68365;SDS011;55283;51.466;5.478;2022-12-07T14:29:46;2.33;;;0.97;;
68365;SDS011;55283;51.466;5.478;2022-12-07T14:32:19;2.97;;;1.02;;
68365;SDS011;55283;51.466;5.478;2022-12-07T14:34:56;1.60;;;0.90;;
68365;SDS011;55283;51.466;5.478;2022-12-07T14:37:23;1.77;;;0.93;;
68365;SDS011;55283;51.466;5.478;2022-12-07T14:39:48;2.28;;;1.20;;
68365;SDS011;55283;51.466;5.478;2022-12-07T14:42:14;1.50;;;0.90;;
68365;SDS011;55283;51.466;5.478;2022-12-07T14:44:39;2.03;;;0.97;;
68365;SDS011;55283;51.466;5.478;2022-12-07T14:47:05;1.40;;;0.83;;
68365;SDS011;55283;51.466;5.478;2022-12-07T14:49:30;1.57;;;0.90;;
68365;SDS011;55283;51.466;5.478;2022-12-07T14:51:55;1.93;;;0.90;;
68365;SDS011;55283;51.466;5.478;2022-12-07T14:54:21;1.35;;;0.80;;
68365;SDS011;55283;51.466;5.478;2022-12-07T14:56:55;1.73;;;1.00;;
68365;SDS011;55283;51.466;5.478;2022-12-07T14:59:20;3.27;;;1.03;;
68365;SDS011;55283;51.466;5.478;2022-12-07T15:01:45;2.55;;;1.00;;
68365;SDS011;55283;51.466;5.478;2022-12-07T15:04:11;2.63;;;1.00;;
68365;SDS011;55283;51.466;5.478;2022-12-07T15:06:36;2.57;;;0.90;;
68365;SDS011;55283;51.466;5.478;2022-12-07T15:09:02;2.03;;;1.15;;
68365;SDS011;55283;51.466;5.478;2022-12-07T15:11:28;1.47;;;0.90;;
68365;SDS011;55283;51.466;5.478;2022-12-07T15:13:54;1.90;;;1.00;;
68365;SDS011;55283;51.466;5.478;2022-12-07T15:16:36;1.70;;;1.10;;
68365;SDS011;55283;51.466;5.478;2022-12-07T15:19:18;1.15;;;0.80;;
68365;SDS011;55283;51.466;5.478;2022-12-07T15:21:48;1.48;;;0.93;;
68365;SDS011;55283;51.466;5.478;2022-12-07T15:24:14;1.50;;;0.90;;
68365;SDS011;55283;51.466;5.478;2022-12-07T15:26:40;1.17;;;0.90;;
68365;SDS011;55283;51.466;5.478;2022-12-07T15:29:06;4.23;;;1.20;;
68365;SDS011;55283;51.466;5.478;2022-12-07T15:31:32;1.52;;;0.90;;
68365;SDS011;55283;51.466;5.478;2022-12-07T15:33:58;1.00;;;0.80;;
68365;SDS011;55283;51.466;5.478;2022-12-07T15:36:24;1.43;;;0.83;;
68365;SDS011;55283;51.466;5.478;2022-12-07T15:38:52;2.85;;;1.15;;
68365;SDS011;55283;51.466;5.478;2022-12-07T15:41:17;1.80;;;0.70;;
68365;SDS011;55283;51.466;5.478;2022-12-07T15:43:43;1.80;;;0.88;;
68365;SDS011;55283;51.466;5.478;2022-12-07T15:46:31;2.30;;;1.00;;
68365;SDS011;55283;51.466;5.478;2022-12-07T15:48:58;2.73;;;0.90;;
68365;SDS011;55283;51.466;5.478;2022-12-07T15:51:23;1.17;;;0.95;;
68365;SDS011;55283;51.466;5.478;2022-12-07T15:53:49;1.50;;;1.00;;
68365;SDS011;55283;51.466;5.478;2022-12-07T15:56:14;2.13;;;0.80;;
68365;SDS011;55283;51.466;5.478;2022-12-07T15:58:40;1.73;;;1.10;;
68365;SDS011;55283;51.466;5.478;2022-12-07T16:01:12;1.80;;;0.90;;
68365;SDS011;55283;51.466;5.478;2022-12-07T16:03:39;2.40;;;1.10;;
68365;SDS011;55283;51.466;5.478;2022-12-07T16:06:04;1.03;;;0.73;;
68365;SDS011;55283;51.466;5.478;2022-12-07T16:08:30;1.50;;;0.80;;
68365;SDS011;55283;51.466;5.478;2022-12-07T16:10:55;1.57;;;0.97;;
68365;SDS011;55283;51.466;5.478;2022-12-07T16:13:21;1.57;;;0.90;;
68365;SDS011;55283;51.466;5.478;2022-12-07T16:15:46;2.50;;;0.93;;
68365;SDS011;55283;51.466;5.478;2022-12-07T16:18:12;1.47;;;0.80;;
68365;SDS011;55283;51.466;5.478;2022-12-07T16:20:37;1.60;;;1.00;;
68365;SDS011;55283;51.466;5.478;2022-12-07T16:23:03;1.08;;;0.80;;
68365;SDS011;55283;51.466;5.478;2022-12-07T16:25:28;1.80;;;1.00;;
68365;SDS011;55283;51.466;5.478;2022-12-07T16:27:54;3.17;;;1.10;;
68365;SDS011;55283;51.466;5.478;2022-12-07T16:30:19;0.70;;;0.70;;
68365;SDS011;55283;51.466;5.478;2022-12-07T16:32:45;1.33;;;0.80;;
68365;SDS011;55283;51.466;5.478;2022-12-07T16:35:10;1.37;;;1.00;;
68365;SDS011;55283;51.466;5.478;2022-12-07T16:37:36;4.93;;;0.98;;
68365;SDS011;55283;51.466;5.478;2022-12-07T16:40:02;1.23;;;0.90;;
68365;SDS011;55283;51.466;5.478;2022-12-07T16:42:31;1.33;;;0.80;;
68365;SDS011;55283;51.466;5.478;2022-12-07T16:44:57;4.85;;;1.40;;
68365;SDS011;55283;51.466;5.478;2022-12-07T16:47:23;2.53;;;0.90;;
68365;SDS011;55283;51.466;5.478;2022-12-07T16:49:48;1.37;;;0.83;;
68365;SDS011;55283;51.466;5.478;2022-12-07T16:52:14;1.90;;;0.87;;
68365;SDS011;55283;51.466;5.478;2022-12-07T16:54:39;2.03;;;1.00;;
68365;SDS011;55283;51.466;5.478;2022-12-07T16:57:05;1.20;;;0.73;;
68365;SDS011;55283;51.466;5.478;2022-12-07T16:59:30;4.20;;;1.00;;
68365;SDS011;55283;51.466;5.478;2022-12-07T17:01:56;1.80;;;1.05;;
68365;SDS011;55283;51.466;5.478;2022-12-07T17:04:22;4.03;;;1.00;;
68365;SDS011;55283;51.466;5.478;2022-12-07T17:06:47;1.90;;;0.90;;
68365;SDS011;55283;51.466;5.478;2022-12-07T17:09:12;2.20;;;0.90;;
68365;SDS011;55283;51.466;5.478;2022-12-07T17:11:38;1.95;;;1.00;;
68365;SDS011;55283;51.466;5.478;2022-12-07T17:14:03;2.07;;;0.90;;
68365;SDS011;55283;51.466;5.478;2022-12-07T17:16:47;2.50;;;0.90;;
68365;SDS011;55283;51.466;5.478;2022-12-07T17:19:14;1.53;;;1.00;;
68365;SDS011;55283;51.466;5.478;2022-12-07T17:21:41;4.55;;;0.93;;
68365;SDS011;55283;51.466;5.478;2022-12-07T17:24:08;1.57;;;0.90;;
68365;SDS011;55283;51.466;5.478;2022-12-07T17:26:35;2.03;;;0.85;;
68365;SDS011;55283;51.466;5.478;2022-12-07T17:29:02;2.15;;;0.90;;
68365;SDS011;55283;51.466;5.478;2022-12-07T17:31:29;1.20;;;0.80;;
68365;SDS011;55283;51.466;5.478;2022-12-07T17:33:54;1.50;;;0.80;;
68365;SDS011;55283;51.466;5.478;2022-12-07T17:36:27;1.20;;;0.90;;
68365;SDS011;55283;51.466;5.478;2022-12-07T17:38:55;1.13;;;0.88;;
68365;SDS011;55283;51.466;5.478;2022-12-07T17:41:22;1.43;;;0.77;;
68365;SDS011;55283;51.466;5.478;2022-12-07T17:44:09;1.05;;;0.90;;
68365;SDS011;55283;51.466;5.478;2022-12-07T17:46:36;2.35;;;0.77;;
68365;SDS011;55283;51.466;5.478;2022-12-07T17:49:02;1.13;;;0.80;;
68365;SDS011;55283;51.466;5.478;2022-12-07T17:51:28;1.08;;;0.75;;
68365;SDS011;55283;51.466;5.478;2022-12-07T17:54:12;1.13;;;0.80;;